sensor_id;sensor_type;location;lat;lon;timestamp;pressure;altitude;pressure_sealevel;temperature;humidity
48200;BME280;33990;44.602;10.976;2023-05-10T00:01:28;100653.31;;;22.75;56.74
48200;BME280;33990;44.602;10.976;2023-05-10T00:03:56;100648.91;;;22.74;56.95
48200;BME280;33990;44.602;10.976;2023-05-10T00:06:23;100648.06;;;22.73;56.98
48200;BME280;33990;44.602;10.976;2023-05-10T00:08:51;100640.13;;;22.71;56.93
48200;BME280;33990;44.602;10.976;2023-05-10T00:11:18;100653.59;;;22.71;57.05
48200;BME280;33990;44.602;10.976;2023-05-10T00:13:48;100647.19;;;22.73;57.06
48200;BME280;33990;44.602;10.976;2023-05-10T00:16:16;100643.81;;;22.70;57.11
48200;BME280;33990;44.602;10.976;2023-05-10T00:18:43;100649.06;;;22.72;57.05
48200;BME280;33990;44.602;10.976;2023-05-10T00:21:10;100642.81;;;22.71;56.97
48200;BME280;33990;44.602;10.976;2023-05-10T00:23:38;100640.13;;;22.71;57.12
48200;BME280;33990;44.602;10.976;2023-05-10T00:26:05;100636.56;;;22.71;57.08
48200;BME280;33990;44.602;10.976;2023-05-10T00:28:32;100628.66;;;22.69;56.96
48200;BME280;33990;44.602;10.976;2023-05-10T00:31:00;100633.03;;;22.70;56.99
48200;BME280;33990;44.602;10.976;2023-05-10T00:33:29;100618.69;;;22.70;56.93
48200;BME280;33990;44.602;10.976;2023-05-10T00:35:56;100615.16;;;22.69;57.04
48200;BME280;33990;44.602;10.976;2023-05-10T00:38:24;100616.84;;;22.70;57.05
48200;BME280;33990;44.602;10.976;2023-05-10T00:40:51;100633.22;;;22.69;56.94
48200;BME280;33990;44.602;10.976;2023-05-10T00:43:25;100628.66;;;22.69;57.00
48200;BME280;33990;44.602;10.976;2023-05-10T00:45:53;100624.22;;;22.68;57.11
48200;BME280;33990;44.602;10.976;2023-05-10T00:48:21;100627.63;;;22.70;57.08
48200;BME280;33990;44.602;10.976;2023-05-10T00:50:49;100623.25;;;22.69;57.20
48200;BME280;33990;44.602;10.976;2023-05-10T00:53:18;100616.13;;;22.68;57.04
48200;BME280;33990;44.602;10.976;2023-05-10T00:55:46;100619.72;;;22.69;57.09
48200;BME280;33990;44.602;10.976;2023-05-10T00:58:14;100614.31;;;22.69;57.23
48200;BME280;33990;44.602;10.976;2023-05-10T01:00:41;100607.19;;;22.68;57.40
48200;BME280;33990;44.602;10.976;2023-05-10T01:03:10;100613.44;;;22.68;57.37
48200;BME280;33990;44.602;10.976;2023-05-10T01:05:41;100612.59;;;22.68;57.22
48200;BME280;33990;44.602;10.976;2023-05-10T01:08:08;100610.75;;;22.68;57.23
48200;BME280;33990;44.602;10.976;2023-05-10T01:10:36;100613.44;;;22.68;57.29
48200;BME280;33990;44.602;10.976;2023-05-10T01:13:03;100613.44;;;22.68;57.42
48200;BME280;33990;44.602;10.976;2023-05-10T01:15:31;100607.19;;;22.68;57.44
48200;BME280;33990;44.602;10.976;2023-05-10T01:17:59;100603.66;;;22.67;57.57
48200;BME280;33990;44.602;10.976;2023-05-10T01:20:32;100614.31;;;22.69;57.57
48200;BME280;33990;44.602;10.976;2023-05-10T01:23:18;100610.75;;;22.68;57.43
48200;BME280;33990;44.602;10.976;2023-05-10T01:32:38;100612.59;;;22.68;57.65
48200;BME280;33990;44.602;10.976;2023-05-10T01:35:10;100607.38;;;22.66;57.59
48200;BME280;33990;44.602;10.976;2023-05-10T01:37:48;100610.06;;;22.66;57.67
48200;BME280;33990;44.602;10.976;2023-05-10T01:40:35;100618.16;;;22.66;57.72
48200;BME280;33990;44.602;10.976;2023-05-10T01:43:08;100627.94;;;22.67;57.69
48200;BME280;33990;44.602;10.976;2023-05-10T01:46:05;100625.41;;;22.66;57.54
48200;BME280;33990;44.602;10.976;2023-05-10T01:48:41;100623.56;;;22.66;57.60
48200;BME280;33990;44.602;10.976;2023-05-10T01:51:21;100622.84;;;22.64;57.70
48200;BME280;33990;44.602;10.976;2023-05-10T01:53:51;100625.41;;;22.66;57.91
48200;BME280;33990;44.602;10.976;2023-05-10T01:56:24;100620.88;;;22.66;57.88
48200;BME280;33990;44.602;10.976;2023-05-10T01:58:52;100622.72;;;22.66;58.17
48200;BME280;33990;44.602;10.976;2023-05-10T02:01:21;100619.00;;;22.67;57.68
48200;BME280;33990;44.602;10.976;2023-05-10T02:03:51;100620.88;;;22.66;57.76
48200;BME280;33990;44.602;10.976;2023-05-10T02:06:22;100614.63;;;22.66;57.70
48200;BME280;33990;44.602;10.976;2023-05-10T02:08:52;100617.31;;;22.66;57.82
48200;BME280;33990;44.602;10.976;2023-05-10T02:11:21;100616.47;;;22.65;57.84
48200;BME280;33990;44.602;10.976;2023-05-10T02:13:50;100620.88;;;22.66;57.76
48200;BME280;33990;44.602;10.976;2023-05-10T02:16:21;100620.16;;;22.64;57.93
48200;BME280;33990;44.602;10.976;2023-05-10T02:18:52;100615.63;;;22.65;57.98
48200;BME280;33990;44.602;10.976;2023-05-10T02:21:20;100622.03;;;22.64;57.88
48200;BME280;33990;44.602;10.976;2023-05-10T02:23:49;100618.47;;;22.63;57.88
48200;BME280;33990;44.602;10.976;2023-05-10T02:26:19;100624.72;;;22.64;58.02
48200;BME280;33990;44.602;10.976;2023-05-10T02:28:48;100623.88;;;22.63;58.02
48200;BME280;33990;44.602;10.976;2023-05-10T02:31:17;100624.72;;;22.64;58.00
48200;BME280;33990;44.602;10.976;2023-05-10T02:33:45;100626.56;;;22.63;57.92
48200;BME280;33990;44.602;10.976;2023-05-10T02:36:13;100630.97;;;22.64;58.03
48200;BME280;33990;44.602;10.976;2023-05-10T02:38:43;100633.66;;;22.64;58.04
48200;BME280;33990;44.602;10.976;2023-05-10T02:41:12;100625.72;;;22.63;58.11
48200;BME280;33990;44.602;10.976;2023-05-10T02:43:40;100626.56;;;22.63;58.02
48200;BME280;33990;44.602;10.976;2023-05-10T02:46:09;100621.19;;;22.63;58.10
48200;BME280;33990;44.602;10.976;2023-05-10T02:48:36;100622.19;;;22.62;57.93
48200;BME280;33990;44.602;10.976;2023-05-10T02:51:07;100615.94;;;22.62;57.93
48200;BME280;33990;44.602;10.976;2023-05-10T02:53:36;100602.47;;;22.62;57.94
48200;BME280;33990;44.602;10.976;2023-05-10T02:56:12;100607.84;;;22.62;58.09
48200;BME280;33990;44.602;10.976;2023-05-10T02:58:42;100601.63;;;22.61;57.89
48200;BME280;33990;44.602;10.976;2023-05-10T03:01:09;100593.53;;;22.61;57.86
48200;BME280;33990;44.602;10.976;2023-05-10T03:03:38;100601.63;;;22.61;58.17
48200;BME280;33990;44.602;10.976;2023-05-10T03:06:05;100595.19;;;22.62;58.27
48200;BME280;33990;44.602;10.976;2023-05-10T03:08:32;100593.53;;;22.61;58.24
48200;BME280;33990;44.602;10.976;2023-05-10T03:13:32;100583.56;;;22.62;58.37
48200;BME280;33990;44.602;10.976;2023-05-10T03:16:10;100577.34;;;22.61;58.38
48200;BME280;33990;44.602;10.976;2023-05-10T03:18:48;100578.31;;;22.60;58.23
48200;BME280;33990;44.602;10.976;2023-05-10T03:21:18;100572.91;;;22.60;58.31
48200;BME280;33990;44.602;10.976;2023-05-10T03:24:07;100572.91;;;22.60;58.10
48200;BME280;33990;44.602;10.976;2023-05-10T03:26:37;100576.63;;;22.59;58.31
48200;BME280;33990;44.602;10.976;2023-05-10T03:29:14;100572.91;;;22.60;58.28
48200;BME280;33990;44.602;10.976;2023-05-10T03:31:42;100578.31;;;22.60;58.33
48200;BME280;33990;44.602;10.976;2023-05-10T03:34:10;100575.63;;;22.60;58.42
48200;BME280;33990;44.602;10.976;2023-05-10T03:36:38;100572.91;;;22.60;58.36
48200;BME280;33990;44.602;10.976;2023-05-10T03:39:05;100566.69;;;22.60;58.49
48200;BME280;33990;44.602;10.976;2023-05-10T03:41:33;100572.91;;;22.60;58.02
48200;BME280;33990;44.602;10.976;2023-05-10T03:44:00;100578.31;;;22.60;58.28
48200;BME280;33990;44.602;10.976;2023-05-10T03:46:28;100574.78;;;22.60;58.25
48200;BME280;33990;44.602;10.976;2023-05-10T03:48:55;100564.81;;;22.60;58.17
48200;BME280;33990;44.602;10.976;2023-05-10T03:51:23;100567.53;;;22.60;58.20
48200;BME280;33990;44.602;10.976;2023-05-10T03:53:55;100562.13;;;22.60;58.42
48200;BME280;33990;44.602;10.976;2023-05-10T03:56:23;100567.53;;;22.60;58.40
48200;BME280;33990;44.602;10.976;2023-05-10T03:58:50;100572.06;;;22.60;58.28
48200;BME280;33990;44.602;10.976;2023-05-10T04:01:17;100572.06;;;22.60;58.10
48200;BME280;33990;44.602;10.976;2023-05-10T04:03:46;100561.28;;;22.60;58.10
48200;BME280;33990;44.602;10.976;2023-05-10T04:06:13;100560.44;;;22.59;58.30
48200;BME280;33990;44.602;10.976;2023-05-10T04:08:41;100565.84;;;22.59;58.01
48200;BME280;33990;44.602;10.976;2023-05-10T04:11:11;100572.25;;;22.58;58.20
48200;BME280;33990;44.602;10.976;2023-05-10T04:13:39;100569.53;;;22.58;58.19
48200;BME280;33990;44.602;10.976;2023-05-10T04:16:07;100566.84;;;22.58;58.11
48200;BME280;33990;44.602;10.976;2023-05-10T04:18:34;100573.25;;;22.57;58.21
48200;BME280;33990;44.602;10.976;2023-05-10T04:21:01;100577.66;;;22.58;58.05
48200;BME280;33990;44.602;10.976;2023-05-10T04:23:29;100571.41;;;22.58;58.14
48200;BME280;33990;44.602;10.976;2023-05-10T04:26:00;100569.53;;;22.58;57.98
48200;BME280;33990;44.602;10.976;2023-05-10T04:28:28;100562.47;;;22.57;57.82
48200;BME280;33990;44.602;10.976;2023-05-10T04:31:06;100564.31;;;22.57;58.14
48200;BME280;33990;44.602;10.976;2023-05-10T04:33:34;100557.06;;;22.57;57.92
48200;BME280;33990;44.602;10.976;2023-05-10T04:36:02;100560.75;;;22.56;57.96
48200;BME280;33990;44.602;10.976;2023-05-10T04:38:30;100558.06;;;22.56;57.93
48200;BME280;33990;44.602;10.976;2023-05-10T04:41:08;100565.31;;;22.56;58.02
48200;BME280;33990;44.602;10.976;2023-05-10T04:43:36;100559.91;;;22.56;57.92
48200;BME280;33990;44.602;10.976;2023-05-10T04:46:04;100555.34;;;22.56;57.90
48200;BME280;33990;44.602;10.976;2023-05-10T04:48:32;100564.47;;;22.55;57.90
48200;BME280;33990;44.602;10.976;2023-05-10T04:51:00;100553.66;;;22.55;57.70
48200;BME280;33990;44.602;10.976;2023-05-10T04:53:28;100559.06;;;22.55;57.90
48200;BME280;33990;44.602;10.976;2023-05-10T04:55:55;100562.78;;;22.54;58.03
48200;BME280;33990;44.602;10.976;2023-05-10T04:58:22;100556.53;;;22.54;57.73
48200;BME280;33990;44.602;10.976;2023-05-10T05:00:50;100556.38;;;22.55;57.80
48200;BME280;33990;44.602;10.976;2023-05-10T05:03:17;100560.09;;;22.54;57.80
48200;BME280;33990;44.602;10.976;2023-05-10T05:05:44;100559.06;;;22.55;57.79
48200;BME280;33990;44.602;10.976;2023-05-10T05:08:12;100558.22;;;22.55;57.65
48200;BME280;33990;44.602;10.976;2023-05-10T05:10:40;100553.84;;;22.54;57.74
48200;BME280;33990;44.602;10.976;2023-05-10T05:13:07;100565.47;;;22.54;57.75
48200;BME280;33990;44.602;10.976;2023-05-10T05:15:34;100564.63;;;22.54;57.97
48200;BME280;33990;44.602;10.976;2023-05-10T05:18:02;100562.78;;;22.54;57.66
48200;BME280;33990;44.602;10.976;2023-05-10T05:20:32;100555.69;;;22.53;57.84
48200;BME280;33990;44.602;10.976;2023-05-10T05:23:00;100566.50;;;22.53;57.70
48200;BME280;33990;44.602;10.976;2023-05-10T05:25:28;100560.25;;;22.53;57.72
48200;BME280;33990;44.602;10.976;2023-05-10T05:27:55;100563.78;;;22.53;57.58
48200;BME280;33990;44.602;10.976;2023-05-10T05:30:22;100562.94;;;22.53;57.85
48200;BME280;33990;44.602;10.976;2023-05-10T05:32:49;100560.25;;;22.53;57.86
48200;BME280;33990;44.602;10.976;2023-05-10T05:35:17;100562.06;;;22.52;57.77
48200;BME280;33990;44.602;10.976;2023-05-10T05:37:45;100561.22;;;22.52;57.75
48200;BME280;33990;44.602;10.976;2023-05-10T05:40:13;100561.22;;;22.52;57.37
48200;BME280;33990;44.602;10.976;2023-05-10T05:42:41;100552.31;;;22.51;57.39
48200;BME280;33990;44.602;10.976;2023-05-10T05:45:09;100558.53;;;22.52;57.57
48200;BME280;33990;44.602;10.976;2023-05-10T05:47:40;100565.78;;;22.51;57.56
48200;BME280;33990;44.602;10.976;2023-05-10T05:50:08;100559.56;;;22.51;57.50
48200;BME280;33990;44.602;10.976;2023-05-10T05:52:36;100560.38;;;22.51;57.43
48200;BME280;33990;44.602;10.976;2023-05-10T05:55:03;100558.53;;;22.52;57.27
48200;BME280;33990;44.602;10.976;2023-05-10T05:57:31;100558.72;;;22.50;57.67
48200;BME280;33990;44.602;10.976;2023-05-10T05:59:58;100568.50;;;22.51;57.57
48200;BME280;33990;44.602;10.976;2023-05-10T06:02:26;100564.94;;;22.51;57.54
48200;BME280;33990;44.602;10.976;2023-05-10T06:04:53;100569.50;;;22.50;57.80
48200;BME280;33990;44.602;10.976;2023-05-10T06:07:21;100569.50;;;22.50;57.50
48200;BME280;33990;44.602;10.976;2023-05-10T06:09:48;100572.19;;;22.50;57.76
48200;BME280;33990;44.602;10.976;2023-05-10T06:12:15;100571.34;;;22.50;57.72
48200;BME280;33990;44.602;10.976;2023-05-10T06:14:43;100577.59;;;22.50;57.57
48200;BME280;33990;44.602;10.976;2023-05-10T06:17:10;100581.31;;;22.49;57.47
48200;BME280;33990;44.602;10.976;2023-05-10T06:19:37;100577.59;;;22.50;57.64
48200;BME280;33990;44.602;10.976;2023-05-10T06:22:05;100576.75;;;22.50;57.81
48200;BME280;33990;44.602;10.976;2023-05-10T06:24:32;100580.28;;;22.50;57.78
48200;BME280;33990;44.602;10.976;2023-05-10T06:26:59;100571.34;;;22.50;57.70
48200;BME280;33990;44.602;10.976;2023-05-10T06:29:27;100575.91;;;22.49;57.81
48200;BME280;33990;44.602;10.976;2023-05-10T06:31:54;100568.66;;;22.50;57.80
48200;BME280;33990;44.602;10.976;2023-05-10T06:34:22;100569.66;;;22.49;57.84
48200;BME280;33990;44.602;10.976;2023-05-10T06:36:49;100583.00;;;22.50;57.90
48200;BME280;33990;44.602;10.976;2023-05-10T06:39:16;100577.59;;;22.50;57.54
48200;BME280;33990;44.602;10.976;2023-05-10T06:41:43;100576.03;;;22.48;56.73
48200;BME280;33990;44.602;10.976;2023-05-10T06:44:11;100574.38;;;22.46;56.39
48200;BME280;33990;44.602;10.976;2023-05-10T06:46:38;100576.22;;;22.46;56.98
48200;BME280;33990;44.602;10.976;2023-05-10T06:49:05;100573.00;;;22.42;55.84
48200;BME280;33990;44.602;10.976;2023-05-10T06:51:33;100576.34;;;22.36;56.04
48200;BME280;33990;44.602;10.976;2023-05-10T06:54:00;100581.50;;;22.30;56.09
48200;BME280;33990;44.602;10.976;2023-05-10T06:56:28;100569.63;;;22.23;55.83
48200;BME280;33990;44.602;10.976;2023-05-10T06:58:56;100578.19;;;22.18;56.00
48200;BME280;33990;44.602;10.976;2023-05-10T07:01:23;100578.50;;;22.15;56.46
48200;BME280;33990;44.602;10.976;2023-05-10T07:03:50;100575.81;;;22.15;56.72
48200;BME280;33990;44.602;10.976;2023-05-10T07:06:18;100571.97;;;22.17;57.09
48200;BME280;33990;44.602;10.976;2023-05-10T07:08:59;100577.06;;;22.20;57.30
48200;BME280;33990;44.602;10.976;2023-05-10T07:11:27;100573.34;;;22.21;57.58
48200;BME280;33990;44.602;10.976;2023-05-10T07:13:54;100583.81;;;22.25;57.67
48200;BME280;33990;44.602;10.976;2023-05-10T07:16:22;100580.13;;;22.26;57.46
48200;BME280;33990;44.602;10.976;2023-05-10T07:18:49;100578.09;;;22.28;57.32
48200;BME280;33990;44.602;10.976;2023-05-10T07:21:18;100580.66;;;22.29;57.37
48200;BME280;33990;44.602;10.976;2023-05-10T07:23:46;100586.88;;;22.30;57.59
48200;BME280;33990;44.602;10.976;2023-05-10T07:26:13;100582.34;;;22.30;57.47
48200;BME280;33990;44.602;10.976;2023-05-10T07:28:41;100576.78;;;22.32;57.52
48200;BME280;33990;44.602;10.976;2023-05-10T07:31:09;100590.25;;;22.32;57.13
48200;BME280;33990;44.602;10.976;2023-05-10T07:33:36;100583.03;;;22.32;57.27
48200;BME280;33990;44.602;10.976;2023-05-10T07:36:03;100588.44;;;22.32;57.21
48200;BME280;33990;44.602;10.976;2023-05-10T07:38:30;100593.66;;;22.34;57.08
48200;BME280;33990;44.602;10.976;2023-05-10T07:40:58;100593.66;;;22.34;57.18
48200;BME280;33990;44.602;10.976;2023-05-10T07:43:25;100595.53;;;22.33;57.08
48200;BME280;33990;44.602;10.976;2023-05-10T07:45:52;100593.66;;;22.34;57.07
48200;BME280;33990;44.602;10.976;2023-05-10T07:48:22;100596.38;;;22.34;57.14
48200;BME280;33990;44.602;10.976;2023-05-10T07:50:49;100586.41;;;22.34;56.89
48200;BME280;33990;44.602;10.976;2023-05-10T07:53:17;100590.97;;;22.34;57.17
48200;BME280;33990;44.602;10.976;2023-05-10T07:55:50;100594.69;;;22.33;56.98
48200;BME280;33990;44.602;10.976;2023-05-10T07:58:18;100592.81;;;22.33;57.10
48200;BME280;33990;44.602;10.976;2023-05-10T08:00:45;100593.84;;;22.32;57.06
48200;BME280;33990;44.602;10.976;2023-05-10T08:03:13;100596.38;;;22.34;57.04
48200;BME280;33990;44.602;10.976;2023-05-10T08:05:41;100592.97;;;22.32;56.97
48200;BME280;33990;44.602;10.976;2023-05-10T08:08:08;100592.97;;;22.32;56.98
48200;BME280;33990;44.602;10.976;2023-05-10T08:10:35;100601.94;;;22.32;57.09
48200;BME280;33990;44.602;10.976;2023-05-10T08:13:02;100602.78;;;22.33;57.00
48200;BME280;33990;44.602;10.976;2023-05-10T08:15:30;100607.31;;;22.32;57.00
48200;BME280;33990;44.602;10.976;2023-05-10T08:17:57;100608.16;;;22.33;56.87
48200;BME280;33990;44.602;10.976;2023-05-10T08:20:25;100610.00;;;22.32;56.88
48200;BME280;33990;44.602;10.976;2023-05-10T08:22:52;100606.44;;;22.32;56.62
48200;BME280;33990;44.602;10.976;2023-05-10T08:25:19;100617.22;;;22.32;56.61
48200;BME280;33990;44.602;10.976;2023-05-10T08:27:47;100621.78;;;22.31;56.69
48200;BME280;33990;44.602;10.976;2023-05-10T08:30:14;100616.38;;;22.31;56.85
48200;BME280;33990;44.602;10.976;2023-05-10T08:32:41;100620.94;;;22.31;56.70
48200;BME280;33990;44.602;10.976;2023-05-10T08:35:09;100618.41;;;22.29;56.45
48200;BME280;33990;44.602;10.976;2023-05-10T08:37:36;100616.03;;;22.26;55.82
48200;BME280;33990;44.602;10.976;2023-05-10T08:40:04;100613.09;;;22.19;55.63
48200;BME280;33990;44.602;10.976;2023-05-10T08:42:34;100617.81;;;22.17;56.37
48200;BME280;33990;44.602;10.976;2023-05-10T08:45:04;100618.81;;;22.16;56.58
48200;BME280;33990;44.602;10.976;2023-05-10T08:47:32;100625.06;;;22.17;56.80
48200;BME280;33990;44.602;10.976;2023-05-10T08:50:00;100617.81;;;22.17;56.80
48200;BME280;33990;44.602;10.976;2023-05-10T08:52:30;100616.78;;;22.18;56.79
48200;BME280;33990;44.602;10.976;2023-05-10T08:54:59;100630.09;;;22.20;56.73
48200;BME280;33990;44.602;10.976;2023-05-10T08:57:26;100618.34;;;22.21;56.63
48200;BME280;33990;44.602;10.976;2023-05-10T08:59:53;100628.13;;;22.22;56.40
48200;BME280;33990;44.602;10.976;2023-05-10T09:02:21;100621.88;;;22.21;56.12
48200;BME280;33990;44.602;10.976;2023-05-10T09:04:50;100629.44;;;22.18;55.21
48200;BME280;33990;44.602;10.976;2023-05-10T09:07:18;100639.84;;;22.13;54.91
48200;BME280;33990;44.602;10.976;2023-05-10T09:09:46;100637.03;;;22.05;54.91
48200;BME280;33990;44.602;10.976;2023-05-10T09:12:14;100638.50;;;21.99;55.75
48200;BME280;33990;44.602;10.976;2023-05-10T09:14:44;100644.22;;;21.96;55.64
48200;BME280;33990;44.602;10.976;2023-05-10T09:17:12;100638.81;;;21.96;55.83
48200;BME280;33990;44.602;10.976;2023-05-10T09:19:39;100649.25;;;21.99;56.03
48200;BME280;33990;44.602;10.976;2023-05-10T09:22:07;100641.03;;;22.01;56.13
48200;BME280;33990;44.602;10.976;2023-05-10T09:24:34;100650.66;;;22.03;56.19
48200;BME280;33990;44.602;10.976;2023-05-10T09:27:01;100647.81;;;22.05;55.93
48200;BME280;33990;44.602;10.976;2023-05-10T09:29:39;100658.28;;;22.08;56.20
48200;BME280;33990;44.602;10.976;2023-05-10T09:32:07;100663.66;;;22.08;56.15
48200;BME280;33990;44.602;10.976;2023-05-10T09:34:34;100655.44;;;22.09;56.00
48200;BME280;33990;44.602;10.976;2023-05-10T09:37:02;100659.81;;;22.10;56.05
48200;BME280;33990;44.602;10.976;2023-05-10T09:39:35;100662.34;;;22.12;55.77
48200;BME280;33990;44.602;10.976;2023-05-10T09:42:08;100667.75;;;22.12;55.75
48200;BME280;33990;44.602;10.976;2023-05-10T09:44:36;100670.34;;;22.13;55.84
48200;BME280;33990;44.602;10.976;2023-05-10T09:47:05;100678.53;;;22.12;55.77
48200;BME280;33990;44.602;10.976;2023-05-10T09:49:32;100675.75;;;22.13;55.75
48200;BME280;33990;44.602;10.976;2023-05-10T09:52:05;100676.59;;;22.14;55.49
48200;BME280;33990;44.602;10.976;2023-05-10T09:54:33;100679.28;;;22.14;55.56
48200;BME280;33990;44.602;10.976;2023-05-10T09:57:01;100690.06;;;22.14;55.57
48200;BME280;33990;44.602;10.976;2023-05-10T09:59:29;100682.81;;;22.14;55.63
48200;BME280;33990;44.602;10.976;2023-05-10T10:01:57;100674.72;;;22.14;55.52
48200;BME280;33990;44.602;10.976;2023-05-10T10:04:26;100682.81;;;22.14;55.55
48200;BME280;33990;44.602;10.976;2023-05-10T10:07:02;100691.75;;;22.15;55.55
48200;BME280;33990;44.602;10.976;2023-05-10T10:09:29;100693.59;;;22.14;55.56
48200;BME280;33990;44.602;10.976;2023-05-10T10:11:57;100691.75;;;22.15;55.46
48200;BME280;33990;44.602;10.976;2023-05-10T10:14:25;100690.91;;;22.14;55.29
48200;BME280;33990;44.602;10.976;2023-05-10T10:16:53;100695.28;;;22.15;55.55
48200;BME280;33990;44.602;10.976;2023-05-10T10:19:34;100696.31;;;22.14;55.42
48200;BME280;33990;44.602;10.976;2023-05-10T10:22:03;100702.53;;;22.15;55.42
48200;BME280;33990;44.602;10.976;2023-05-10T10:24:30;100708.78;;;22.15;55.44
48200;BME280;33990;44.602;10.976;2023-05-10T10:27:06;100697.97;;;22.15;55.24
48200;BME280;33990;44.602;10.976;2023-05-10T10:29:47;100707.94;;;22.15;55.34
48200;BME280;33990;44.602;10.976;2023-05-10T10:35:16;100702.53;;;22.15;55.00
48200;BME280;33990;44.602;10.976;2023-05-10T10:37:45;100704.38;;;22.14;55.18
48200;BME280;33990;44.602;10.976;2023-05-10T10:40:29;100712.47;;;22.14;54.26
48200;BME280;33990;44.602;10.976;2023-05-10T10:46:10;100713.50;;;22.04;54.01
48200;BME280;33990;44.602;10.976;2023-05-10T10:48:47;100708.28;;;22.02;54.60
48200;BME280;33990;44.602;10.976;2023-05-10T10:51:15;100709.13;;;22.03;54.95
48200;BME280;33990;44.602;10.976;2023-05-10T10:53:42;100716.19;;;22.04;54.74
48200;BME280;33990;44.602;10.976;2023-05-10T10:56:11;100711.69;;;22.04;54.96
48200;BME280;33990;44.602;10.976;2023-05-10T10:58:41;100712.53;;;22.05;54.75
48200;BME280;33990;44.602;10.976;2023-05-10T11:03:37;100709.66;;;22.06;54.92
48200;BME280;33990;44.602;10.976;2023-05-10T11:06:05;100713.19;;;22.07;54.66
48200;BME280;33990;44.602;10.976;2023-05-10T11:08:34;100705.97;;;22.07;54.46
48200;BME280;33990;44.602;10.976;2023-05-10T11:11:05;100712.81;;;22.02;53.22
48200;BME280;33990;44.602;10.976;2023-05-10T11:13:43;100705.66;;;21.92;53.35
48200;BME280;33990;44.602;10.976;2023-05-10T11:16:43;100710.09;;;21.84;53.46
48200;BME280;33990;44.602;10.976;2023-05-10T11:19:12;100707.00;;;21.79;53.86
48200;BME280;33990;44.602;10.976;2023-05-10T11:24:18;100718.63;;;21.79;54.48
48200;BME280;33990;44.602;10.976;2023-05-10T11:26:46;100719.34;;;21.81;54.59
48200;BME280;33990;44.602;10.976;2023-05-10T11:29:16;100711.09;;;21.83;54.43
48200;BME280;33990;44.602;10.976;2023-05-10T11:31:44;100726.28;;;21.84;54.16
48200;BME280;33990;44.602;10.976;2023-05-10T11:34:29;100715.19;;;21.87;54.10
48200;BME280;33990;44.602;10.976;2023-05-10T11:36:58;100718.59;;;21.89;54.04
48200;BME280;33990;44.602;10.976;2023-05-10T11:39:27;100710.50;;;21.89;54.30
48200;BME280;33990;44.602;10.976;2023-05-10T11:41:56;100715.72;;;21.90;54.46
48200;BME280;33990;44.602;10.976;2023-05-10T11:44:29;100707.50;;;21.92;54.32
48200;BME280;33990;44.602;10.976;2023-05-10T11:47:03;100714.59;;;21.93;54.32
48200;BME280;33990;44.602;10.976;2023-05-10T11:49:30;100714.28;;;21.96;54.55
48200;BME280;33990;44.602;10.976;2023-05-10T11:52:07;100711.44;;;21.97;54.21
48200;BME280;33990;44.602;10.976;2023-05-10T11:54:35;100720.53;;;21.96;54.32
48200;BME280;33990;44.602;10.976;2023-05-10T11:57:03;100720.34;;;21.98;54.28
48200;BME280;33990;44.602;10.976;2023-05-10T11:59:31;100715.81;;;21.98;54.20
48200;BME280;33990;44.602;10.976;2023-05-10T12:01:58;100721.22;;;21.98;54.27
48200;BME280;33990;44.602;10.976;2023-05-10T12:04:26;100724.75;;;21.99;54.42
48200;BME280;33990;44.602;10.976;2023-05-10T12:06:54;100721.91;;;22.01;54.44
48200;BME280;33990;44.602;10.976;2023-05-10T12:09:23;100718.22;;;22.02;54.52
48200;BME280;33990;44.602;10.976;2023-05-10T12:12:09;100718.22;;;22.02;54.68
48200;BME280;33990;44.602;10.976;2023-05-10T12:14:36;100718.22;;;22.02;54.51
48200;BME280;33990;44.602;10.976;2023-05-10T12:17:04;100719.91;;;22.03;54.44
48200;BME280;33990;44.602;10.976;2023-05-10T12:19:38;100709.97;;;22.03;54.36
48200;BME280;33990;44.602;10.976;2023-05-10T12:22:05;100716.19;;;22.04;54.41
48200;BME280;33990;44.602;10.976;2023-05-10T12:24:36;100711.81;;;22.03;54.33
48200;BME280;33990;44.602;10.976;2023-05-10T12:27:05;100712.66;;;22.03;54.42
48200;BME280;33990;44.602;10.976;2023-05-10T12:29:35;100715.34;;;22.03;54.43
48200;BME280;33990;44.602;10.976;2023-05-10T12:32:03;100709.13;;;22.03;54.45
48200;BME280;33990;44.602;10.976;2023-05-10T12:34:35;100713.50;;;22.04;54.46
48200;BME280;33990;44.602;10.976;2023-05-10T12:37:03;100705.41;;;22.04;54.50
48200;BME280;33990;44.602;10.976;2023-05-10T12:39:57;100708.09;;;22.04;54.42
48200;BME280;33990;44.602;10.976;2023-05-10T12:42:24;100700.03;;;22.04;54.65
48200;BME280;33990;44.602;10.976;2023-05-10T12:45:02;100708.09;;;22.04;54.71
48200;BME280;33990;44.602;10.976;2023-05-10T12:47:29;100700.91;;;22.04;54.50
48200;BME280;33990;44.602;10.976;2023-05-10T12:49:57;100696.47;;;22.03;54.57
48200;BME280;33990;44.602;10.976;2023-05-10T12:52:24;100698.19;;;22.04;54.73
48200;BME280;33990;44.602;10.976;2023-05-10T12:54:53;100695.50;;;22.04;54.64
48200;BME280;33990;44.602;10.976;2023-05-10T12:57:20;100702.72;;;22.04;54.76
48200;BME280;33990;44.602;10.976;2023-05-10T12:59:48;100701.88;;;22.03;54.83
48200;BME280;33990;44.602;10.976;2023-05-10T13:02:16;100691.81;;;22.05;54.82
48200;BME280;33990;44.602;10.976;2023-05-10T13:04:45;100690.13;;;22.04;54.88
48200;BME280;33990;44.602;10.976;2023-05-10T13:07:16;100688.41;;;22.03;54.65
48200;BME280;33990;44.602;10.976;2023-05-10T13:09:43;100686.72;;;22.02;54.86
48200;BME280;33990;44.602;10.976;2023-05-10T13:12:10;100687.56;;;22.03;54.82